<?xml version="1.0" encoding="UTF-8" standalone="no" ?><gpx xmlns="http://www.topografix.com/GPX/1/1" xmlns:gpxx="http://www.garmin.com/xmlschemas/GpxExtensions/v3" xmlns:gpxtrkx="http://www.garmin.com/xmlschemas/TrackStatsExtension/v1" xmlns:wptx1="http://www.garmin.com/xmlschemas/WaypointExtension/v1" xmlns:gpxtpx="http://www.garmin.com/xmlschemas/TrackPointExtension/v1" creator="Oregon 700" version="1.1" xmlns:xsi="http://www.w3.org/2001/XMLSchema-instance" xsi:schemaLocation="http://www.topografix.com/GPX/1/1 http://www.topografix.com/GPX/1/1/gpx.xsd http://www.garmin.com/xmlschemas/GpxExtensions/v3 http://www8.garmin.com/xmlschemas/GpxExtensionsv3.xsd http://www.garmin.com/xmlschemas/TrackStatsExtension/v1 http://www8.garmin.com/xmlschemas/TrackStatsExtension.xsd http://www.garmin.com/xmlschemas/WaypointExtension/v1 http://www8.garmin.com/xmlschemas/WaypointExtensionv1.xsd http://www.garmin.com/xmlschemas/TrackPointExtension/v1 http://www.garmin.com/xmlschemas/TrackPointExtensionv1.xsd"><metadata><link href="http://www.garmin.com"><text>Garmin International</text></link><time>2023-08-16T14:52:27Z</time></metadata><trk><name>Current Track: 16 AUG 2023 09:58</name><extensions><gpxx:TrackExtension><gpxx:DisplayColor>Cyan</gpxx:DisplayColor></gpxx:TrackExtension><gpxtrkx:TrackStatsExtension><gpxtrkx:Distance>2683.000</gpxtrkx:Distance><gpxtrkx:TimerTime>6854</gpxtrkx:TimerTime><gpxtrkx:TotalElapsedTime>21251</gpxtrkx:TotalElapsedTime><gpxtrkx:MovingTime>4289</gpxtrkx:MovingTime><gpxtrkx:StoppedTime>2566</gpxtrkx:StoppedTime><gpxtrkx:MovingSpeed>0.626</gpxtrkx:MovingSpeed><gpxtrkx:MaxSpeed>1.123</gpxtrkx:MaxSpeed><gpxtrkx:MaxElevation>131.667</gpxtrkx:MaxElevation><gpxtrkx:MinElevation>65.104</gpxtrkx:MinElevation><gpxtrkx:Ascent>82.000</gpxtrkx:Ascent><gpxtrkx:Descent>79.835</gpxtrkx:Descent><gpxtrkx:AvgAscentRate>0.024</gpxtrkx:AvgAscentRate><gpxtrkx:MaxAscentRate>0.084</gpxtrkx:MaxAscentRate><gpxtrkx:AvgDescentRate>0.066</gpxtrkx:AvgDescentRate><gpxtrkx:MaxDescentRate>-0.075</gpxtrkx:MaxDescentRate><gpxtrkx:Calories>116</gpxtrkx:Calories></gpxtrkx:TrackStatsExtension></extensions><trkseg><trkpt lat="51.9385940116" lon="-2.0286930632"><ele>64.43</ele><time>2023-08-16T08:58:16Z</time></trkpt><trkpt lat="51.9385825284" lon="-2.0286809094"><ele>65.04</ele><time>2023-08-16T08:58:40Z</time></trkpt><trkpt lat="51.9385590591" lon="-2.0287484676"><ele>65.59</ele><time>2023-08-16T08:59:05Z</time></trkpt><trkpt lat="51.9384734798" lon="-2.0287431031"><ele>66.07</ele><time>2023-08-16T08:59:29Z</time></trkpt><trkpt lat="51.9384038262" lon="-2.0287236571"><ele>66.48</ele><time>2023-08-16T08:59:51Z</time></trkpt><trkpt lat="51.9383276347" lon="-2.0286064781"><ele>67.79</ele><time>2023-08-16T09:00:10Z</time></trkpt><trkpt lat="51.9383620005" lon="-2.0283672586"><ele>69.97</ele><time>2023-08-16T09:00:38Z</time></trkpt><trkpt lat="51.9383050874" lon="-2.0281363372"><ele>71.82</ele><time>2023-08-16T09:01:01Z</time></trkpt><trkpt lat="51.9382743258" lon="-2.0280524343"><ele>72.65</ele><time>2023-08-16T09:01:21Z</time></trkpt><trkpt lat="51.9381799456" lon="-2.0279023983"><ele>74.44</ele><time>2023-08-16T09:01:42Z</time></trkpt><trkpt lat="51.9380747527" lon="-2.0279193297"><ele>75.16</ele><time>2023-08-16T09:01:57Z</time></trkpt><trkpt lat="51.9379969686" lon="-2.0279597305"><ele>75.63</ele><time>2023-08-16T09:02:10Z</time></trkpt><trkpt lat="51.9378845673" lon="-2.0279947668"><ele>76.25</ele><time>2023-08-16T09:02:26Z</time></trkpt><trkpt lat="51.9377483614" lon="-2.0280447230"><ele>77.07</ele><time>2023-08-16T09:02:43Z</time></trkpt><trkpt lat="51.9376860000" lon="-2.0280589722"><ele>77.59</ele><time>2023-08-16T09:02:53Z</time></trkpt><trkpt lat="51.9375921227" lon="-2.0280879736"><ele>78.42</ele><time>2023-08-16T09:03:09Z</time></trkpt><trkpt lat="51.9374707527" lon="-2.0281319786"><ele>79.41</ele><time>2023-08-16T09:03:26Z</time></trkpt><trkpt lat="51.9373915438" lon="-2.0282026380"><ele>80.26</ele><time>2023-08-16T09:03:47Z</time></trkpt><trkpt lat="51.9372582715" lon="-2.0281847008"><ele>81.28</ele><time>2023-08-16T09:04:06Z</time></trkpt><trkpt lat="51.9371526595" lon="-2.0281568728"><ele>82.11</ele><time>2023-08-16T09:04:20Z</time></trkpt><trkpt lat="51.9370122626" lon="-2.0280945115"><ele>83.10</ele><time>2023-08-16T09:04:40Z</time></trkpt><trkpt lat="51.9369756337" lon="-2.0280816033"><ele>83.71</ele><time>2023-08-16T09:04:54Z</time></trkpt><trkpt lat="51.9369055610" lon="-2.0280293003"><ele>84.22</ele><time>2023-08-16T09:05:17Z</time></trkpt><trkpt lat="51.9368292019" lon="-2.0279858820"><ele>84.98</ele><time>2023-08-16T09:05:32Z</time></trkpt><trkpt lat="51.9367376715" lon="-2.0279381052"><ele>85.90</ele><time>2023-08-16T09:05:48Z</time></trkpt><trkpt lat="51.9367012940" lon="-2.0279254485"><ele>86.75</ele><time>2023-08-16T09:06:01Z</time></trkpt><trkpt lat="51.9365841988" lon="-2.0278572198"><ele>87.98</ele><time>2023-08-16T09:06:21Z</time></trkpt><trkpt lat="51.9365034811" lon="-2.0277915057"><ele>89.25</ele><time>2023-08-16T09:06:43Z</time></trkpt><trkpt lat="51.9365024753" lon="-2.0277623367"><ele>90.42</ele><time>2023-08-16T09:07:00Z</time></trkpt><trkpt lat="51.9364566263" lon="-2.0277480874"><ele>90.28</ele><time>2023-08-16T09:07:23Z</time></trkpt><trkpt lat="51.9364254456" lon="-2.0277195890"><ele>90.69</ele><time>2023-08-16T09:07:42Z</time></trkpt><trkpt lat="51.9362647645" lon="-2.0275903400"><ele>92.26</ele><time>2023-08-16T09:08:05Z</time></trkpt><trkpt lat="51.9362221844" lon="-2.0275049284"><ele>93.65</ele><time>2023-08-16T09:08:29Z</time></trkpt><trkpt lat="51.9361210149" lon="-2.0274629351"><ele>94.32</ele><time>2023-08-16T09:08:46Z</time></trkpt><trkpt lat="51.9360302389" lon="-2.0274662040"><ele>95.21</ele><time>2023-08-16T09:09:05Z</time></trkpt><trkpt lat="51.9359408040" lon="-2.0274970494"><ele>96.15</ele><time>2023-08-16T09:09:20Z</time></trkpt><trkpt lat="51.9359138142" lon="-2.0274960436"><ele>97.40</ele><time>2023-08-16T09:09:43Z</time></trkpt><trkpt lat="51.9358048495" lon="-2.0274991449"><ele>97.68</ele><time>2023-08-16T09:10:14Z</time></trkpt><trkpt lat="51.9357116427" lon="-2.0274334308"><ele>98.88</ele><time>2023-08-16T09:10:33Z</time></trkpt><trkpt lat="51.9356255606" lon="-2.0274032559"><ele>99.08</ele><time>2023-08-16T09:10:48Z</time></trkpt><trkpt lat="51.9355776161" lon="-2.0273952093"><ele>99.71</ele><time>2023-08-16T09:11:07Z</time></trkpt><trkpt lat="51.9354744349" lon="-2.0273788646"><ele>99.84</ele><time>2023-08-16T09:11:35Z</time></trkpt><trkpt lat="51.9354406558" lon="-2.0273639448"><ele>100.37</ele><time>2023-08-16T09:11:50Z</time></trkpt><trkpt lat="51.9353845809" lon="-2.0273543056"><ele>101.48</ele><time>2023-08-16T09:12:08Z</time></trkpt><trkpt lat="51.9353424199" lon="-2.0273311716"><ele>101.83</ele><time>2023-08-16T09:12:29Z</time></trkpt><trkpt lat="51.9353070483" lon="-2.0273865759"><ele>101.91</ele><time>2023-08-16T09:12:52Z</time></trkpt><trkpt lat="51.9351870194" lon="-2.0273572393"><ele>102.34</ele><time>2023-08-16T09:13:12Z</time></trkpt><trkpt lat="51.9350489695" lon="-2.0272921957"><ele>103.30</ele><time>2023-08-16T09:13:29Z</time></trkpt><trkpt lat="51.9348896295" lon="-2.0272562373"><ele>104.53</ele><time>2023-08-16T09:13:46Z</time></trkpt><trkpt lat="51.9347973447" lon="-2.0272315107"><ele>105.26</ele><time>2023-08-16T09:13:57Z</time></trkpt><trkpt lat="51.9347535074" lon="-2.0272237994"><ele>105.66</ele><time>2023-08-16T09:14:02Z</time></trkpt><trkpt lat="51.9347345643" lon="-2.0271565765"><ele>106.22</ele><time>2023-08-16T09:14:25Z</time></trkpt><trkpt lat="51.9346834347" lon="-2.0271502063"><ele>106.62</ele><time>2023-08-16T09:14:59Z</time></trkpt><trkpt lat="51.9345716201" lon="-2.0271015074"><ele>107.71</ele><time>2023-08-16T09:15:13Z</time></trkpt><trkpt lat="51.9345114380" lon="-2.0270771161"><ele>109.40</ele><time>2023-08-16T09:15:29Z</time></trkpt><trkpt lat="51.9344183151" lon="-2.0270290039"><ele>110.29</ele><time>2023-08-16T09:15:46Z</time></trkpt><trkpt lat="51.9342798460" lon="-2.0269865915"><ele>110.61</ele><time>2023-08-16T09:15:59Z</time></trkpt><trkpt lat="51.9341406226" lon="-2.0269049518"><ele>111.52</ele><time>2023-08-16T09:16:17Z</time></trkpt><trkpt lat="51.9340190012" lon="-2.0268477872"><ele>113.27</ele><time>2023-08-16T09:16:36Z</time></trkpt><trkpt lat="51.9338576496" lon="-2.0267596934"><ele>114.15</ele><time>2023-08-16T09:16:52Z</time></trkpt><trkpt lat="51.9337590784" lon="-2.0267233998"><ele>114.56</ele><time>2023-08-16T09:17:06Z</time></trkpt><trkpt lat="51.9336416479" lon="-2.0266370662"><ele>114.94</ele><time>2023-08-16T09:17:23Z</time></trkpt><trkpt lat="51.9335559849" lon="-2.0265425183"><ele>115.93</ele><time>2023-08-16T09:17:43Z</time></trkpt><trkpt lat="51.9334183540" lon="-2.0264555980"><ele>117.53</ele><time>2023-08-16T09:18:01Z</time></trkpt><trkpt lat="51.9333273266" lon="-2.0264154486"><ele>118.56</ele><time>2023-08-16T09:18:19Z</time></trkpt><trkpt lat="51.9331301842" lon="-2.0264129341"><ele>119.52</ele><time>2023-08-16T09:18:52Z</time></trkpt><trkpt lat="51.9330042880" lon="-2.0264454558"><ele>119.89</ele><time>2023-08-16T09:19:22Z</time></trkpt><trkpt lat="51.9329437707" lon="-2.0264109224"><ele>119.91</ele><time>2023-08-16T09:19:40Z</time></trkpt><trkpt lat="51.9327380788" lon="-2.0262095891"><ele>119.92</ele><time>2023-08-16T09:20:22Z</time></trkpt><trkpt lat="51.9325558562" lon="-2.0262531750"><ele>119.92</ele><time>2023-08-16T09:20:53Z</time></trkpt><trkpt lat="51.9324393477" lon="-2.0262406021"><ele>119.92</ele><time>2023-08-16T09:21:17Z</time></trkpt><trkpt lat="51.9322607294" lon="-2.0261592977"><ele>121.14</ele><time>2023-08-16T09:21:47Z</time></trkpt><trkpt lat="51.9321295526" lon="-2.0261156280"><ele>121.40</ele><time>2023-08-16T09:22:03Z</time></trkpt><trkpt lat="51.9319006428" lon="-2.0259791706"><ele>121.60</ele><time>2023-08-16T09:22:23Z</time></trkpt><trkpt lat="51.9316441566" lon="-2.0258780848"><ele>123.64</ele><time>2023-08-16T09:23:05Z</time></trkpt><trkpt lat="51.9314742554" lon="-2.0258422103"><ele>124.26</ele><time>2023-08-16T09:23:29Z</time></trkpt><trkpt lat="51.9313842338" lon="-2.0258503407"><ele>125.49</ele><time>2023-08-16T09:23:49Z</time></trkpt><trkpt lat="51.9313042704" lon="-2.0258532744"><ele>126.56</ele><time>2023-08-16T09:24:09Z</time></trkpt><trkpt lat="51.9311285857" lon="-2.0258225128"><ele>127.44</ele><time>2023-08-16T09:24:57Z</time></trkpt><trkpt lat="51.9309194572" lon="-2.0258666016"><ele>129.40</ele><time>2023-08-16T09:25:26Z</time></trkpt><trkpt lat="51.9308564253" lon="-2.0258862991"><ele>129.83</ele><time>2023-08-16T09:25:37Z</time></trkpt><trkpt lat="51.9308198802" lon="-2.0259893127"><ele>130.39</ele><time>2023-08-16T09:25:59Z</time></trkpt><trkpt lat="51.9306337181" lon="-2.0261274464"><ele>130.18</ele><time>2023-08-16T09:26:34Z</time></trkpt><trkpt lat="51.9303932413" lon="-2.0262526721"><ele>128.34</ele><time>2023-08-16T09:27:24Z</time></trkpt><trkpt lat="51.9301881362" lon="-2.0262864511"><ele>127.40</ele><time>2023-08-16T09:27:49Z</time></trkpt><trkpt lat="51.9301215000" lon="-2.0264536701"><ele>126.90</ele><time>2023-08-16T09:28:16Z</time></trkpt><trkpt lat="51.9299806841" lon="-2.0267070550"><ele>126.44</ele><time>2023-08-16T09:28:35Z</time></trkpt><trkpt lat="51.9299716316" lon="-2.0267113298"><ele>126.86</ele><time>2023-08-16T09:28:53Z</time></trkpt><trkpt lat="51.9299743976" lon="-2.0266741142"><ele>127.02</ele><time>2023-08-16T09:29:19Z</time></trkpt><trkpt lat="51.9299769122" lon="-2.0266811550"><ele>126.96</ele><time>2023-08-16T09:29:42Z</time></trkpt><trkpt lat="51.9299470726" lon="-2.0266752876"><ele>126.96</ele><time>2023-08-16T09:30:08Z</time></trkpt><trkpt lat="51.9298793469" lon="-2.0266415086"><ele>126.96</ele><time>2023-08-16T09:30:33Z</time></trkpt><trkpt lat="51.9298626669" lon="-2.0267389063"><ele>126.96</ele><time>2023-08-16T09:30:57Z</time></trkpt><trkpt lat="51.9298992958" lon="-2.0267839171"><ele>126.96</ele><time>2023-08-16T09:31:21Z</time></trkpt><trkpt lat="51.9298908301" lon="-2.0267547481"><ele>126.96</ele><time>2023-08-16T09:31:47Z</time></trkpt><trkpt lat="51.9298842084" lon="-2.0267233998"><ele>126.96</ele><time>2023-08-16T09:32:16Z</time></trkpt><trkpt lat="51.9298699591" lon="-2.0266904589"><ele>126.96</ele><time>2023-08-16T09:32:41Z</time></trkpt><trkpt lat="51.9298899919" lon="-2.0266791433"><ele>126.96</ele><time>2023-08-16T09:33:08Z</time></trkpt><trkpt lat="51.9298925065" lon="-2.0267224777"><ele>126.96</ele><time>2023-08-16T09:33:30Z</time></trkpt><trkpt lat="51.9299195800" lon="-2.0267260820"><ele>126.96</ele><time>2023-08-16T09:33:54Z</time></trkpt><trkpt lat="51.9299030676" lon="-2.0267130062"><ele>126.96</ele><time>2023-08-16T09:34:20Z</time></trkpt><trkpt lat="51.9299132098" lon="-2.0266642235"><ele>126.96</ele><time>2023-08-16T09:34:47Z</time></trkpt><trkpt lat="51.9298951048" lon="-2.0266789757"><ele>126.96</ele><time>2023-08-16T09:35:18Z</time></trkpt><trkpt lat="51.9298679475" lon="-2.0267223939"><ele>126.96</ele><time>2023-08-16T09:35:47Z</time></trkpt><trkpt lat="51.9298761617" lon="-2.0266821608"><ele>126.96</ele><time>2023-08-16T09:36:16Z</time></trkpt><trkpt lat="51.9298749045" lon="-2.0267027803"><ele>126.96</ele><time>2023-08-16T09:36:40Z</time></trkpt><trkpt lat="51.9298742339" lon="-2.0266963262"><ele>126.96</ele><time>2023-08-16T09:37:08Z</time></trkpt><trkpt lat="51.9298754074" lon="-2.0266793948"><ele>126.96</ele><time>2023-08-16T09:37:28Z</time></trkpt><trkpt lat="51.9298511837" lon="-2.0267249085"><ele>126.96</ele><time>2023-08-16T09:37:55Z</time></trkpt><trkpt lat="51.9298729766" lon="-2.0267156046"><ele>126.96</ele><time>2023-08-16T09:38:19Z</time></trkpt><trkpt lat="51.9298872259" lon="-2.0266880281"><ele>126.96</ele><time>2023-08-16T09:38:44Z</time></trkpt><trkpt lat="51.9299126230" lon="-2.0266759582"><ele>126.96</ele><time>2023-08-16T09:39:10Z</time></trkpt><trkpt lat="51.9298709650" lon="-2.0266808197"><ele>126.96</ele><time>2023-08-16T09:39:38Z</time></trkpt><trkpt lat="51.9298942667" lon="-2.0267003495"><ele>126.96</ele><time>2023-08-16T09:39:58Z</time></trkpt><trkpt lat="51.9298922550" lon="-2.0266887825"><ele>126.96</ele><time>2023-08-16T09:40:24Z</time></trkpt><trkpt lat="51.9298726413" lon="-2.0267004333"><ele>126.96</ele><time>2023-08-16T09:41:19Z</time></trkpt><trkpt lat="51.9298561290" lon="-2.0267178677"><ele>126.96</ele><time>2023-08-16T09:42:05Z</time></trkpt><trkpt lat="51.9298527762" lon="-2.0267106593"><ele>126.96</ele><time>2023-08-16T09:42:29Z</time></trkpt><trkpt lat="51.9298609905" lon="-2.0267206337"><ele>126.96</ele><time>2023-08-16T09:42:55Z</time></trkpt><trkpt lat="51.9298656005" lon="-2.0267152693"><ele>126.96</ele><time>2023-08-16T09:43:22Z</time></trkpt><trkpt lat="51.9298665226" lon="-2.0267271716"><ele>126.96</ele><time>2023-08-16T09:43:47Z</time></trkpt><trkpt lat="51.9298766647" lon="-2.0267153531"><ele>126.96</ele><time>2023-08-16T09:44:19Z</time></trkpt><trkpt lat="51.9298682828" lon="-2.0267181192"><ele>126.96</ele><time>2023-08-16T09:44:58Z</time></trkpt><trkpt lat="51.9298611581" lon="-2.0267398283"><ele>126.96</ele><time>2023-08-16T09:45:31Z</time></trkpt><trkpt lat="51.9298707135" lon="-2.0267024450"><ele>126.96</ele><time>2023-08-16T09:46:13Z</time></trkpt><trkpt lat="51.9298718870" lon="-2.0267252438"><ele>126.96</ele><time>2023-08-16T09:46:41Z</time></trkpt><trkpt lat="51.9298693724" lon="-2.0267240703"><ele>126.96</ele><time>2023-08-16T09:47:12Z</time></trkpt><trkpt lat="51.9298501778" lon="-2.0267423429"><ele>126.96</ele><time>2023-08-16T09:47:44Z</time></trkpt><trkpt lat="51.9298619125" lon="-2.0267375652"><ele>126.96</ele><time>2023-08-16T09:48:13Z</time></trkpt><trkpt lat="51.9298588112" lon="-2.0267460309"><ele>126.96</ele><time>2023-08-16T09:48:45Z</time></trkpt><trkpt lat="51.9298587274" lon="-2.0267365593"><ele>126.96</ele><time>2023-08-16T09:49:29Z</time></trkpt><trkpt lat="51.9298589788" lon="-2.0267425105"><ele>126.96</ele><time>2023-08-16T09:49:55Z</time></trkpt><trkpt lat="51.9298701268" lon="-2.0267322008"><ele>126.96</ele><time>2023-08-16T09:50:18Z</time></trkpt><trkpt lat="51.9298727252" lon="-2.0267202985"><ele>126.96</ele><time>2023-08-16T09:50:51Z</time></trkpt><trkpt lat="51.9298606552" lon="-2.0267280098"><ele>126.96</ele><time>2023-08-16T09:51:34Z</time></trkpt><trkpt lat="51.9298707973" lon="-2.0267247409"><ele>126.96</ele><time>2023-08-16T09:52:08Z</time></trkpt><trkpt lat="51.9298650976" lon="-2.0267268363"><ele>126.96</ele><time>2023-08-16T09:53:13Z</time></trkpt><trkpt lat="51.9298899919" lon="-2.0266895369"><ele>126.96</ele><time>2023-08-16T09:54:04Z</time></trkpt><trkpt lat="51.9298723061" lon="-2.0267028641"><ele>126.96</ele><time>2023-08-16T09:54:30Z</time></trkpt><trkpt lat="51.9298494235" lon="-2.0267083962"><ele>126.96</ele><time>2023-08-16T09:55:25Z</time></trkpt><trkpt lat="51.9298630022" lon="-2.0267259143"><ele>126.96</ele><time>2023-08-16T09:56:08Z</time></trkpt><trkpt lat="51.9298690371" lon="-2.0267138444"><ele>126.96</ele><time>2023-08-16T09:56:41Z</time></trkpt><trkpt lat="51.9298599008" lon="-2.0267029479"><ele>126.96</ele><time>2023-08-16T09:57:36Z</time></trkpt><trkpt lat="51.9298547041" lon="-2.0267063845"><ele>126.96</ele><time>2023-08-16T09:58:13Z</time></trkpt><trkpt lat="51.9298712164" lon="-2.0266985893"><ele>126.96</ele><time>2023-08-16T09:58:53Z</time></trkpt><trkpt lat="51.9298702106" lon="-2.0267011877"><ele>126.96</ele><time>2023-08-16T09:59:21Z</time></trkpt><trkpt lat="51.9298500940" lon="-2.0267274231"><ele>126.96</ele><time>2023-08-16T09:59:50Z</time></trkpt><trkpt lat="51.9298693724" lon="-2.0267026126"><ele>126.96</ele><time>2023-08-16T10:00:15Z</time></trkpt><trkpt lat="51.9298611581" lon="-2.0267254114"><ele>126.96</ele><time>2023-08-16T10:00:49Z</time></trkpt><trkpt lat="51.9298493396" lon="-2.0267456118"><ele>126.96</ele><time>2023-08-16T10:01:12Z</time></trkpt><trkpt lat="51.9298655167" lon="-2.0267159399"><ele>126.96</ele><time>2023-08-16T10:01:39Z</time></trkpt><trkpt lat="51.9298864715" lon="-2.0266882796"><ele>126.96</ele><time>2023-08-16T10:02:16Z</time></trkpt><trkpt lat="51.9298890699" lon="-2.0266867708"><ele>126.96</ele><time>2023-08-16T10:02:50Z</time></trkpt><trkpt lat="51.9298854657" lon="-2.0266932249"><ele>126.96</ele><time>2023-08-16T10:03:16Z</time></trkpt><trkpt lat="51.9298836216" lon="-2.0266892854"><ele>126.96</ele><time>2023-08-16T10:03:54Z</time></trkpt><trkpt lat="51.9298770837" lon="-2.0267111622"><ele>126.96</ele><time>2023-08-16T10:04:19Z</time></trkpt><trkpt lat="51.9298609905" lon="-2.0267207175"><ele>126.96</ele><time>2023-08-16T10:04:42Z</time></trkpt><trkpt lat="51.9298671931" lon="-2.0267125033"><ele>126.96</ele><time>2023-08-16T10:05:13Z</time></trkpt><trkpt lat="51.9298710488" lon="-2.0267208852"><ele>126.96</ele><time>2023-08-16T10:05:37Z</time></trkpt><trkpt lat="51.9298779219" lon="-2.0267218910"><ele>126.96</ele><time>2023-08-16T10:06:05Z</time></trkpt><trkpt lat="51.9298699591" lon="-2.0267178677"><ele>126.96</ele><time>2023-08-16T10:06:37Z</time></trkpt><trkpt lat="51.9298641756" lon="-2.0267215557"><ele>126.96</ele><time>2023-08-16T10:07:13Z</time></trkpt><trkpt lat="51.9298724737" lon="-2.0267041214"><ele>126.96</ele><time>2023-08-16T10:07:56Z</time></trkpt><trkpt lat="51.9298583921" lon="-2.0267189573"><ele>126.96</ele><time>2023-08-16T10:08:32Z</time></trkpt><trkpt lat="51.9298548717" lon="-2.0267215557"><ele>126.96</ele><time>2023-08-16T10:09:01Z</time></trkpt><trkpt lat="51.9298990443" lon="-2.0267681591"><ele>126.96</ele><time>2023-08-16T10:09:36Z</time></trkpt><trkpt lat="51.9299071748" lon="-2.0267213881"><ele>129.87</ele><time>2023-08-16T10:09:41Z</time></trkpt><trkpt lat="51.9299008045" lon="-2.0267033670"><ele>126.85</ele><time>2023-08-16T10:09:50Z</time></trkpt><trkpt lat="51.9298863038" lon="-2.0266881958"><ele>126.19</ele><time>2023-08-16T10:10:34Z</time></trkpt><trkpt lat="51.9298935123" lon="-2.0266835019"><ele>122.70</ele><time>2023-08-16T10:10:47Z</time></trkpt><trkpt lat="51.9298921712" lon="-2.0266841725"><ele>122.44</ele><time>2023-08-16T10:10:48Z</time></trkpt><trkpt lat="51.9298904110" lon="-2.0266871061"><ele>125.46</ele><time>2023-08-16T10:10:50Z</time></trkpt><trkpt lat="51.9298843760" lon="-2.0266919676"><ele>128.63</ele><time>2023-08-16T10:10:53Z</time></trkpt><trkpt lat="51.9298818614" lon="-2.0266950689"><ele>128.84</ele><time>2023-08-16T10:10:54Z</time></trkpt><trkpt lat="51.9298722222" lon="-2.0267072227"><ele>126.27</ele><time>2023-08-16T10:11:21Z</time></trkpt><trkpt lat="51.9298678637" lon="-2.0267214719"><ele>126.13</ele><time>2023-08-16T10:11:47Z</time></trkpt><trkpt lat="51.9298627507" lon="-2.0267086476"><ele>126.13</ele><time>2023-08-16T10:12:20Z</time></trkpt><trkpt lat="51.9298486691" lon="-2.0267346315"><ele>126.07</ele><time>2023-08-16T10:12:46Z</time></trkpt><trkpt lat="51.9298500940" lon="-2.0267375652"><ele>126.07</ele><time>2023-08-16T10:13:13Z</time></trkpt><trkpt lat="51.9298510998" lon="-2.0267501380"><ele>126.07</ele><time>2023-08-16T10:13:38Z</time></trkpt><trkpt lat="51.9298479985" lon="-2.0267419238"><ele>126.07</ele><time>2023-08-16T10:14:12Z</time></trkpt><trkpt lat="51.9298500940" lon="-2.0267360564"><ele>126.07</ele><time>2023-08-16T10:14:41Z</time></trkpt><trkpt lat="51.9298593979" lon="-2.0267218910"><ele>126.07</ele><time>2023-08-16T10:15:17Z</time></trkpt><trkpt lat="51.9298589788" lon="-2.0267276745"><ele>126.07</ele><time>2023-08-16T10:15:48Z</time></trkpt><trkpt lat="51.9298514351" lon="-2.0267316978"><ele>126.07</ele><time>2023-08-16T10:16:28Z</time></trkpt><trkpt lat="51.9298641756" lon="-2.0267280098"><ele>126.07</ele><time>2023-08-16T10:16:57Z</time></trkpt><trkpt lat="51.9298917521" lon="-2.0266925544"><ele>126.07</ele><time>2023-08-16T10:17:25Z</time></trkpt><trkpt lat="51.9298993796" lon="-2.0266891178"><ele>126.07</ele><time>2023-08-16T10:17:49Z</time></trkpt><trkpt lat="51.9298650976" lon="-2.0267000981"><ele>126.07</ele><time>2023-08-16T10:18:25Z</time></trkpt><trkpt lat="51.9298732281" lon="-2.0266992599"><ele>126.07</ele><time>2023-08-16T10:18:57Z</time></trkpt><trkpt lat="51.9298640080" lon="-2.0267270878"><ele>126.07</ele><time>2023-08-16T10:19:22Z</time></trkpt><trkpt lat="51.9298603199" lon="-2.0267280936"><ele>126.07</ele><time>2023-08-16T10:19:45Z</time></trkpt><trkpt lat="51.9298562128" lon="-2.0267886948"><ele>126.07</ele><time>2023-08-16T10:20:09Z</time></trkpt><trkpt lat="51.9298538659" lon="-2.0268622041"><ele>126.07</ele><time>2023-08-16T10:20:29Z</time></trkpt><trkpt lat="51.9297923427" lon="-2.0268394891"><ele>126.07</ele><time>2023-08-16T10:20:35Z</time></trkpt><trkpt lat="51.9297321606" lon="-2.0267842524"><ele>124.40</ele><time>2023-08-16T10:20:51Z</time></trkpt><trkpt lat="51.9297570549" lon="-2.0268399920"><ele>124.53</ele><time>2023-08-16T10:21:10Z</time></trkpt><trkpt lat="51.9298959430" lon="-2.0269014314"><ele>125.59</ele><time>2023-08-16T10:21:32Z</time></trkpt><trkpt lat="51.9300016388" lon="-2.0268073026"><ele>126.20</ele><time>2023-08-16T10:21:52Z</time></trkpt><trkpt lat="51.9300443865" lon="-2.0268214680"><ele>126.13</ele><time>2023-08-16T10:22:14Z</time></trkpt><trkpt lat="51.9300977793" lon="-2.0267188735"><ele>125.87</ele><time>2023-08-16T10:22:31Z</time></trkpt><trkpt lat="51.9301121961" lon="-2.0266042091"><ele>126.07</ele><time>2023-08-16T10:22:53Z</time></trkpt><trkpt lat="51.9301639125" lon="-2.0263670012"><ele>126.07</ele><time>2023-08-16T10:23:17Z</time></trkpt><trkpt lat="51.9302696921" lon="-2.0263084956"><ele>126.07</ele><time>2023-08-16T10:23:36Z</time></trkpt><trkpt lat="51.9303348195" lon="-2.0262972638"><ele>130.59</ele><time>2023-08-16T10:23:45Z</time></trkpt><trkpt lat="51.9303401839" lon="-2.0262965094"><ele>130.60</ele><time>2023-08-16T10:23:46Z</time></trkpt><trkpt lat="51.9304542616" lon="-2.0262222458"><ele>131.42</ele><time>2023-08-16T10:24:05Z</time></trkpt><trkpt lat="51.9305794034" lon="-2.0261646621"><ele>131.93</ele><time>2023-08-16T10:24:22Z</time></trkpt><trkpt lat="51.9306332991" lon="-2.0261294581"><ele>131.86</ele><time>2023-08-16T10:24:45Z</time></trkpt><trkpt lat="51.9307063054" lon="-2.0261121914"><ele>130.34</ele><time>2023-08-16T10:25:10Z</time></trkpt><trkpt lat="51.9307825807" lon="-2.0260999538"><ele>129.78</ele><time>2023-08-16T10:25:36Z</time></trkpt><trkpt lat="51.9308478758" lon="-2.0261137001"><ele>129.01</ele><time>2023-08-16T10:26:00Z</time></trkpt><trkpt lat="51.9309698325" lon="-2.0261080842"><ele>128.06</ele><time>2023-08-16T10:26:35Z</time></trkpt><trkpt lat="51.9310228899" lon="-2.0260941703"><ele>127.13</ele><time>2023-08-16T10:26:54Z</time></trkpt><trkpt lat="51.9311336987" lon="-2.0260838605"><ele>125.69</ele><time>2023-08-16T10:27:13Z</time></trkpt><trkpt lat="51.9311737642" lon="-2.0261003729"><ele>124.41</ele><time>2023-08-16T10:27:37Z</time></trkpt><trkpt lat="51.9312161766" lon="-2.0260909013"><ele>124.41</ele><time>2023-08-16T10:27:46Z</time></trkpt><trkpt lat="51.9313364569" lon="-2.0261389297"><ele>123.97</ele><time>2023-08-16T10:28:07Z</time></trkpt><trkpt lat="51.9313722476" lon="-2.0262030512"><ele>123.83</ele><time>2023-08-16T10:28:40Z</time></trkpt><trkpt lat="51.9313415699" lon="-2.0262162108"><ele>123.95</ele><time>2023-08-16T10:29:00Z</time></trkpt><trkpt lat="51.9313877542" lon="-2.0262040570"><ele>123.95</ele><time>2023-08-16T10:29:27Z</time></trkpt><trkpt lat="51.9314120617" lon="-2.0262302086"><ele>123.95</ele><time>2023-08-16T10:29:55Z</time></trkpt><trkpt lat="51.9314629398" lon="-2.0262105111"><ele>123.95</ele><time>2023-08-16T10:30:19Z</time></trkpt><trkpt lat="51.9316359423" lon="-2.0261887182"><ele>123.95</ele><time>2023-08-16T10:30:37Z</time></trkpt><trkpt lat="51.9316564780" lon="-2.0261945855"><ele>121.27</ele><time>2023-08-16T10:30:53Z</time></trkpt><trkpt lat="51.9317768421" lon="-2.0261944178"><ele>121.58</ele><time>2023-08-16T10:31:19Z</time></trkpt><trkpt lat="51.9319274649" lon="-2.0262027159"><ele>122.17</ele><time>2023-08-16T10:31:41Z</time></trkpt><trkpt lat="51.9320197497" lon="-2.0262287837"><ele>122.77</ele><time>2023-08-16T10:32:08Z</time></trkpt><trkpt lat="51.9321514294" lon="-2.0261869580"><ele>123.62</ele><time>2023-08-16T10:32:23Z</time></trkpt><trkpt lat="51.9322580472" lon="-2.0261822641"><ele>123.97</ele><time>2023-08-16T10:32:40Z</time></trkpt><trkpt lat="51.9324080832" lon="-2.0261380915"><ele>123.35</ele><time>2023-08-16T10:32:56Z</time></trkpt><trkpt lat="51.9325395115" lon="-2.0261728764"><ele>122.83</ele><time>2023-08-16T10:33:10Z</time></trkpt><trkpt lat="51.9326671679" lon="-2.0261695236"><ele>122.29</ele><time>2023-08-16T10:33:24Z</time></trkpt><trkpt lat="51.9327591173" lon="-2.0261855330"><ele>122.30</ele><time>2023-08-16T10:33:38Z</time></trkpt><trkpt lat="51.9329307787" lon="-2.0262032188"><ele>122.30</ele><time>2023-08-16T10:34:06Z</time></trkpt><trkpt lat="51.9330283441" lon="-2.0262882113"><ele>122.73</ele><time>2023-08-16T10:34:30Z</time></trkpt><trkpt lat="51.9330422580" lon="-2.0262961742"><ele>122.69</ele><time>2023-08-16T10:34:31Z</time></trkpt><trkpt lat="51.9332293421" lon="-2.0263949968"><ele>122.27</ele><time>2023-08-16T10:34:51Z</time></trkpt><trkpt lat="51.9333501253" lon="-2.0264745411"><ele>121.74</ele><time>2023-08-16T10:35:13Z</time></trkpt><trkpt lat="51.9334745966" lon="-2.0265492238"><ele>120.15</ele><time>2023-08-16T10:35:39Z</time></trkpt><trkpt lat="51.9336502813" lon="-2.0266693365"><ele>118.43</ele><time>2023-08-16T10:36:05Z</time></trkpt><trkpt lat="51.9337750040" lon="-2.0267588552"><ele>117.26</ele><time>2023-08-16T10:36:29Z</time></trkpt><trkpt lat="51.9339154009" lon="-2.0268141758"><ele>116.54</ele><time>2023-08-16T10:36:56Z</time></trkpt><trkpt lat="51.9340322446" lon="-2.0268184505"><ele>115.38</ele><time>2023-08-16T10:37:18Z</time></trkpt><trkpt lat="51.9341438077" lon="-2.0268643834"><ele>113.89</ele><time>2023-08-16T10:37:43Z</time></trkpt><trkpt lat="51.9342038222" lon="-2.0269161835"><ele>113.21</ele><time>2023-08-16T10:37:59Z</time></trkpt><trkpt lat="51.9342424627" lon="-2.0269274991"><ele>113.01</ele><time>2023-08-16T10:38:20Z</time></trkpt><trkpt lat="51.9343787525" lon="-2.0269788802"><ele>112.40</ele><time>2023-08-16T10:38:42Z</time></trkpt><trkpt lat="51.9345223345" lon="-2.0270134974"><ele>110.99</ele><time>2023-08-16T10:39:06Z</time></trkpt><trkpt lat="51.9346680120" lon="-2.0271361247"><ele>109.00</ele><time>2023-08-16T10:39:35Z</time></trkpt><trkpt lat="51.9347696844" lon="-2.0271669701"><ele>108.06</ele><time>2023-08-16T10:39:58Z</time></trkpt><trkpt lat="51.9348768052" lon="-2.0272180997"><ele>107.23</ele><time>2023-08-16T10:40:16Z</time></trkpt><trkpt lat="51.9350368157" lon="-2.0273300819"><ele>105.70</ele><time>2023-08-16T10:40:43Z</time></trkpt><trkpt lat="51.9352053758" lon="-2.0273911860"><ele>104.69</ele><time>2023-08-16T10:41:07Z</time></trkpt><trkpt lat="51.9352972414" lon="-2.0274010766"><ele>104.03</ele><time>2023-08-16T10:41:30Z</time></trkpt><trkpt lat="51.9353539031" lon="-2.0274029206"><ele>102.73</ele><time>2023-08-16T10:41:55Z</time></trkpt><trkpt lat="51.9354943838" lon="-2.0274232887"><ele>101.43</ele><time>2023-08-16T10:42:20Z</time></trkpt><trkpt lat="51.9356857426" lon="-2.0274605881"><ele>100.70</ele><time>2023-08-16T10:42:45Z</time></trkpt><trkpt lat="51.9358815439" lon="-2.0275009051"><ele>99.29</ele><time>2023-08-16T10:43:09Z</time></trkpt><trkpt lat="51.9360221922" lon="-2.0274899248"><ele>97.80</ele><time>2023-08-16T10:43:35Z</time></trkpt><trkpt lat="51.9361435622" lon="-2.0275473408"><ele>96.54</ele><time>2023-08-16T10:43:57Z</time></trkpt><trkpt lat="51.9362707995" lon="-2.0276975445"><ele>94.93</ele><time>2023-08-16T10:44:15Z</time></trkpt><trkpt lat="51.9364173990" lon="-2.0278225187"><ele>93.18</ele><time>2023-08-16T10:44:42Z</time></trkpt><trkpt lat="51.9365151320" lon="-2.0279142167"><ele>92.12</ele><time>2023-08-16T10:45:06Z</time></trkpt><trkpt lat="51.9366643298" lon="-2.0280028973"><ele>90.25</ele><time>2023-08-16T10:45:32Z</time></trkpt><trkpt lat="51.9367907289" lon="-2.0280401129"><ele>88.67</ele><time>2023-08-16T10:45:54Z</time></trkpt><trkpt lat="51.9369235821" lon="-2.0281012170"><ele>86.90</ele><time>2023-08-16T10:46:19Z</time></trkpt><trkpt lat="51.9370470475" lon="-2.0281589683"><ele>85.18</ele><time>2023-08-16T10:46:42Z</time></trkpt><trkpt lat="51.9372212235" lon="-2.0282040630"><ele>84.06</ele><time>2023-08-16T10:47:08Z</time></trkpt><trkpt lat="51.9373426773" lon="-2.0282155462"><ele>83.07</ele><time>2023-08-16T10:47:29Z</time></trkpt><trkpt lat="51.9374901149" lon="-2.0281357504"><ele>81.72</ele><time>2023-08-16T10:47:51Z</time></trkpt><trkpt lat="51.9376241416" lon="-2.0281147957"><ele>80.43</ele><time>2023-08-16T10:48:17Z</time></trkpt><trkpt lat="51.9377690647" lon="-2.0280864649"><ele>79.39</ele><time>2023-08-16T10:48:40Z</time></trkpt><trkpt lat="51.9379277341" lon="-2.0280217566"><ele>78.20</ele><time>2023-08-16T10:49:03Z</time></trkpt><trkpt lat="51.9380497746" lon="-2.0279666875"><ele>77.50</ele><time>2023-08-16T10:49:23Z</time></trkpt><trkpt lat="51.9381445739" lon="-2.0279583894"><ele>76.45</ele><time>2023-08-16T10:49:40Z</time></trkpt><trkpt lat="51.9382814504" lon="-2.0281211659"><ele>75.09</ele><time>2023-08-16T10:50:03Z</time></trkpt><trkpt lat="51.9382972084" lon="-2.0281790011"><ele>73.61</ele><time>2023-08-16T10:50:26Z</time></trkpt><trkpt lat="51.9382951967" lon="-2.0283853635"><ele>71.87</ele><time>2023-08-16T10:50:48Z</time></trkpt><trkpt lat="51.9383299816" lon="-2.0285634790"><ele>69.82</ele><time>2023-08-16T10:51:14Z</time></trkpt><trkpt lat="51.9383723941" lon="-2.0286735334"><ele>68.68</ele><time>2023-08-16T10:51:36Z</time></trkpt><trkpt lat="51.9384611584" lon="-2.0287410077"><ele>67.63</ele><time>2023-08-16T10:51:59Z</time></trkpt><trkpt lat="51.9385215919" lon="-2.0287065580"><ele>66.13</ele><time>2023-08-16T10:52:24Z</time></trkpt><trkpt lat="51.9385343324" lon="-2.0286897104"><ele>68.48</ele><time>2023-08-16T10:52:29Z</time></trkpt><trkpt lat="51.9385363441" lon="-2.0286851842"><ele>68.63</ele><time>2023-08-16T10:52:32Z</time></trkpt></trkseg></trk></gpx>